Time;durP1;ratioP1;P1;durP2;ratioP2;P2;SDS_P1;SDS_P2;PMS_P1;PMS_P2;Temp;Humidity;BMP_temperature;BMP_pressure;BME280_temperature;BME280_humidity;BME280_pressure;Samples;Min_cycle;Max_cycle;Signal;HPM_P1;HPM_P2
2023/06/20 00:00:50;;;;;;;8.63;4.78;;;22.20;99.90;;;;;;5072064;28;20400;-57
2023/06/20 00:03:16;;;;;;;5.25;4.68;;;22.10;99.90;;;;;;5071803;28;20032;-57
2023/06/20 00:05:42;;;;;;;5.60;5.10;;;22.10;99.90;;;;;;5071733;28;20040;-58
2023/06/20 00:08:08;;;;;;;6.00;4.90;;;22.00;99.90;;;;;;5072084;28;20052;-56
2023/06/20 00:10:34;;;;;;;5.95;5.38;;;21.90;99.90;;;;;;5071777;28;20448;-58
2023/06/20 00:12:59;;;;;;;6.90;5.30;;;21.90;99.90;;;;;;5071267;28;20125;-57
2023/06/20 00:15:26;;;;;;;5.85;5.10;;;21.90;99.90;;;;;;5071529;28;20024;-58
2023/06/20 00:17:59;;;;;;;6.45;5.40;;;21.90;99.90;;;;;;5070318;28;20071;-58
2023/06/20 00:20:25;;;;;;;5.90;5.30;;;21.90;99.90;;;;;;5071379;28;20021;-57
2023/06/20 00:22:51;;;;;;;7.82;5.60;;;21.90;99.90;;;;;;5071670;28;20044;-58
2023/06/20 00:25:17;;;;;;;8.05;5.68;;;21.90;99.90;;;;;;5071427;28;20120;-59
2023/06/20 00:27:43;;;;;;;6.53;5.93;;;21.90;99.90;;;;;;5071468;28;20374;-58
2023/06/20 00:30:09;;;;;;;6.57;5.90;;;21.90;99.90;;;;;;5070263;28;20035;-54
2023/06/20 00:32:35;;;;;;;6.88;5.63;;;21.90;99.90;;;;;;5071469;28;20036;-56
2023/06/20 00:35:01;;;;;;;8.02;5.43;;;22.00;99.90;;;;;;5071174;28;20499;-57
2023/06/20 00:37:27;;;;;;;6.55;5.57;;;22.10;99.90;;;;;;5071038;28;20032;-57
2023/06/20 00:39:53;;;;;;;6.30;5.72;;;22.10;99.90;;;;;;5071322;28;20109;-58
2023/06/20 00:42:23;;;;;;;7.07;5.95;;;22.10;99.90;;;;;;5069651;28;20503;-58
2023/06/20 00:44:50;;;;;;;7.18;6.00;;;22.20;99.90;;;;;;5071228;28;20020;-58
2023/06/20 00:47:17;;;;;;;6.65;5.97;;;22.20;99.90;;;;;;5071429;28;20482;-58
2023/06/20 00:49:48;;;;;;;8.32;6.13;;;22.20;99.90;;;;;;5071408;28;20021;-57
2023/06/20 00:52:18;;;;;;;7.22;6.25;;;22.30;99.90;;;;;;5071082;28;20409;-57
2023/06/20 00:54:46;;;;;;;9.57;6.40;;;22.20;99.90;;;;;;5071233;28;20017;-58
2023/06/20 00:57:14;;;;;;;7.80;5.47;;;22.20;99.90;;;;;;5070935;28;20028;-57
2023/06/20 00:59:44;;;;;;;7.72;5.88;;;22.10;99.90;;;;;;5071265;28;20021;-56
2023/06/20 01:02:10;;;;;;;6.63;5.47;;;22.00;99.90;;;;;;5071354;28;20035;-57
2023/06/20 01:04:39;;;;;;;5.97;5.35;;;22.00;99.90;;;;;;5071009;28;20028;-58
2023/06/20 01:07:41;;;;;;;5.75;5.25;;;22.00;99.90;;;;;;5071004;28;20478;-57
2023/06/20 01:10:19;;;;;;;7.30;5.75;;;21.90;99.90;;;;;;5068337;28;20131;-58
2023/06/20 01:12:56;;;;;;;6.35;5.70;;;21.70;99.90;;;;;;5070971;28;20041;-57
2023/06/20 01:15:40;;;;;;;7.03;6.20;;;21.70;99.90;;;;;;5070901;28;20161;-58
2023/06/20 01:18:43;;;;;;;8.60;6.50;;;21.60;99.90;;;;;;5070925;28;20020;-58
2023/06/20 01:21:13;;;;;;;7.53;6.33;;;21.60;99.90;;;;;;5071140;28;20089;-57
2023/06/20 01:23:42;;;;;;;7.80;6.30;;;21.50;99.90;;;;;;5070956;28;20507;-57
2023/06/20 01:26:28;;;;;;;8.05;6.35;;;21.40;99.90;;;;;;5070597;28;20032;-58
2023/06/20 01:29:06;;;;;;;8.05;6.63;;;21.40;99.90;;;;;;5070817;28;20074;-58
2023/06/20 01:31:35;;;;;;;8.30;6.57;;;21.30;99.90;;;;;;5070890;28;20020;-58
2023/06/20 01:34:08;;;;;;;6.63;5.90;;;21.30;99.90;;;;;;5071002;28;20033;-58
2023/06/20 01:36:38;;;;;;;6.65;5.97;;;21.30;99.90;;;;;;5070988;28;20446;-56
2023/06/20 01:39:14;;;;;;;6.70;6.00;;;21.30;99.90;;;;;;5070452;28;20032;-57
2023/06/20 01:41:42;;;;;;;8.02;6.68;;;21.40;99.90;;;;;;5070869;28;20032;-57
2023/06/20 01:44:12;;;;;;;8.15;6.45;;;21.30;99.90;;;;;;5070592;28;20031;-58
2023/06/20 01:46:38;;;;;;;7.18;6.50;;;21.30;99.90;;;;;;5070797;28;20033;-57
2023/06/20 01:49:06;;;;;;;8.20;6.43;;;21.30;99.90;;;;;;5073764;28;20044;-57
2023/06/20 01:51:33;;;;;;;6.53;5.88;;;21.40;99.90;;;;;;5074366;28;20025;-57
2023/06/20 01:54:02;;;;;;;7.22;5.90;;;21.50;99.90;;;;;;5074044;28;20039;-57
2023/06/20 01:56:30;;;;;;;6.90;6.13;;;21.60;99.90;;;;;;5074400;28;20020;-53
2023/06/20 01:58:58;;;;;;;7.40;6.43;;;21.80;99.90;;;;;;5073208;28;20031;-58
2023/06/20 02:01:24;;;;;;;6.70;5.85;;;21.80;99.90;;;;;;5074164;28;20016;-57
2023/06/20 02:03:53;;;;;;;6.25;5.65;;;21.80;99.90;;;;;;5074001;28;20032;-57
2023/06/20 02:06:21;;;;;;;6.65;5.60;;;21.80;99.90;;;;;;5074142;28;20477;-58
2023/06/20 02:08:48;;;;;;;6.63;5.85;;;21.80;99.90;;;;;;5074078;28;20024;-57
2023/06/20 02:11:15;;;;;;;6.05;5.55;;;21.70;99.90;;;;;;5074015;28;20021;-57
2023/06/20 02:13:41;;;;;;;6.20;5.60;;;21.70;99.90;;;;;;5073940;28;20047;-58
2023/06/20 02:16:08;;;;;;;5.95;5.38;;;21.80;99.90;;;;;;5074129;28;20021;-58
2023/06/20 02:18:34;;;;;;;5.88;5.38;;;21.80;99.90;;;;;;5073899;28;20165;-58
2023/06/20 02:21:06;;;;;;;5.53;5.03;;;21.70;99.90;;;;;;5073785;28;20044;-57
2023/06/20 02:23:34;;;;;;;8.85;5.50;;;21.50;99.90;;;;;;5073494;28;20082;-57
2023/06/20 02:26:11;;;;;;;6.45;5.60;;;21.40;99.90;;;;;;5073682;28;20045;-57
2023/06/20 02:28:40;;;;;;;6.40;5.70;;;21.20;99.90;;;;;;5074125;28;20033;-57
2023/06/20 02:31:13;;;;;;;7.47;6.03;;;21.10;99.90;;;;;;5073173;28;20026;-58
2023/06/20 02:33:41;;;;;;;7.18;5.97;;;21.00;99.90;;;;;;5073890;28;20036;-57
2023/06/20 02:36:08;;;;;;;6.55;5.95;;;21.10;99.90;;;;;;5053528;28;20112;-58
2023/06/20 02:38:34;;;;;;;5.93;5.32;;;21.00;99.90;;;;;;5053315;28;20392;-57
2023/06/20 02:41:00;;;;;;;6.30;5.70;;;21.00;99.90;;;;;;5053744;28;20029;-58
2023/06/20 02:43:25;;;;;;;6.50;5.63;;;21.00;99.90;;;;;;5063896;28;20031;-58
2023/06/20 02:45:59;;;;;;;6.93;5.60;;;20.90;99.90;;;;;;5073185;28;20119;-58
2023/06/20 02:48:32;;;;;;;6.90;5.70;;;20.90;99.90;;;;;;5073451;28;20025;-58
2023/06/20 02:51:07;;;;;;;7.65;6.10;;;20.80;99.90;;;;;;5073016;28;20388;-57
2023/06/20 02:53:56;;;;;;;6.38;5.72;;;20.80;99.90;;;;;;5073639;28;20039;-57
2023/06/20 02:56:25;;;;;;;8.18;5.80;;;20.80;99.90;;;;;;5073284;28;20032;-58
2023/06/20 02:58:56;;;;;;;6.25;5.65;;;20.70;99.90;;;;;;5072619;28;20016;-58
2023/06/20 03:01:25;;;;;;;6.28;5.60;;;20.60;99.90;;;;;;5072919;28;20047;-58
2023/06/20 03:03:54;;;;;;;6.88;5.82;;;20.80;99.90;;;;;;5072901;28;20020;-58
2023/06/20 03:06:27;;;;;;;5.85;5.25;;;20.90;99.90;;;;;;5072803;28;20016;-58
2023/06/20 03:08:53;;;;;;;6.20;5.60;;;21.00;99.90;;;;;;5072982;28;20033;-58
2023/06/20 03:11:20;;;;;;;6.15;5.50;;;21.20;99.90;;;;;;5073142;28;20032;-57
2023/06/20 03:13:46;;;;;;;6.13;5.50;;;21.30;99.90;;;;;;5072808;28;20036;-57
2023/06/20 03:16:12;;;;;;;6.57;5.60;;;21.40;99.90;;;;;;5072728;28;20503;-57
2023/06/20 03:18:39;;;;;;;5.80;5.18;;;21.20;99.90;;;;;;5072882;28;20103;-57
2023/06/20 03:21:05;;;;;;;6.00;5.40;;;21.10;99.90;;;;;;5072536;28;20021;-57
2023/06/20 03:23:31;;;;;;;7.07;5.90;;;21.20;99.90;;;;;;5072713;28;20020;-58
2023/06/20 03:25:58;;;;;;;5.97;5.38;;;21.20;99.90;;;;;;5072985;28;20056;-57
2023/06/20 03:28:24;;;;;;;6.05;5.55;;;21.20;99.90;;;;;;5072608;28;20069;-57
2023/06/20 03:30:51;;;;;;;6.30;5.70;;;21.10;99.90;;;;;;5072495;28;20130;-58
2023/06/20 03:33:16;;;;;;;7.15;5.97;;;21.20;99.90;;;;;;5072810;28;20043;-57
2023/06/20 03:35:42;;;;;;;6.15;5.60;;;21.10;99.90;;;;;;5071973;28;20017;-57
2023/06/20 03:38:08;;;;;;;6.50;5.90;;;20.90;99.90;;;;;;5072633;28;20393;-57
2023/06/20 03:40:34;;;;;;;8.27;6.32;;;20.80;99.90;;;;;;5072245;28;20024;-58
2023/06/20 03:42:59;;;;;;;6.78;6.07;;;20.80;99.90;;;;;;5072117;28;20024;-56
2023/06/20 03:45:25;;;;;;;6.47;5.88;;;20.60;99.90;;;;;;5072375;28;20028;-58
2023/06/20 03:47:51;;;;;;;6.40;5.80;;;20.60;99.90;;;;;;5072222;28;20027;-58
2023/06/20 03:50:17;;;;;;;6.50;5.82;;;20.50;99.90;;;;;;5071871;28;20037;-58
2023/06/20 03:52:42;;;;;;;6.72;6.03;;;20.40;99.90;;;;;;5072067;28;20028;-57
2023/06/20 03:55:08;;;;;;;8.80;6.63;;;20.40;99.90;;;;;;5072041;28;20028;-57
2023/06/20 03:57:35;;;;;;;8.75;6.20;;;20.30;99.90;;;;;;5071855;28;20032;-58
2023/06/20 04:00:05;;;;;;;6.65;6.05;;;20.30;99.90;;;;;;5072303;28;20119;-58
2023/06/20 04:02:31;;;;;;;7.10;6.40;;;20.30;99.90;;;;;;5071958;28;20040;-58
2023/06/20 04:04:57;;;;;;;6.78;6.18;;;20.30;99.90;;;;;;5071563;28;20100;-58
2023/06/20 04:07:23;;;;;;;7.43;6.13;;;20.30;99.90;;;;;;5071808;28;20063;-58
2023/06/20 04:09:51;;;;;;;6.85;5.95;;;20.20;99.90;;;;;;5072169;28;20029;-58
2023/06/20 04:12:17;;;;;;;6.72;6.13;;;20.20;99.90;;;;;;5071550;28;20526;-58
2023/06/20 04:14:43;;;;;;;7.57;6.28;;;20.20;99.90;;;;;;5071782;28;20025;-58
2023/06/20 04:17:08;;;;;;;6.90;6.28;;;20.30;99.90;;;;;;5071617;28;20085;-57
2023/06/20 04:19:34;;;;;;;6.97;6.28;;;20.40;99.90;;;;;;5071650;28;20404;-58
2023/06/20 04:22:00;;;;;;;7.05;6.35;;;20.40;99.90;;;;;;5071571;28;20484;-57
2023/06/20 04:24:26;;;;;;;7.93;6.18;;;20.60;99.90;;;;;;5071331;28;20095;-57
2023/06/20 04:26:54;;;;;;;6.80;6.10;;;20.80;99.90;;;;;;5071528;28;20082;-58
2023/06/20 04:29:20;;;;;;;7.15;6.45;;;20.80;99.90;;;;;;5071541;28;20031;-57
2023/06/20 04:31:47;;;;;;;7.60;6.78;;;20.90;99.90;;;;;;5071494;28;20093;-58
2023/06/20 04:34:12;;;;;;;8.07;6.78;;;20.80;99.90;;;;;;5071465;28;20099;-58
2023/06/20 04:36:38;;;;;;;7.15;6.55;;;20.70;99.90;;;;;;5071436;28;20169;-56
2023/06/20 04:39:06;;;;;;;8.32;7.18;;;20.70;99.90;;;;;;5071377;28;20651;-58
2023/06/20 04:41:32;;;;;;;7.40;6.70;;;20.80;99.90;;;;;;5071664;28;20024;-58
2023/06/20 04:44:00;;;;;;;7.50;6.80;;;20.80;99.90;;;;;;5071150;28;20036;-58
2023/06/20 04:46:26;;;;;;;9.07;6.90;;;20.80;99.90;;;;;;5071298;28;20489;-57
2023/06/20 04:48:52;;;;;;;8.25;6.95;;;20.80;99.90;;;;;;5070978;28;20029;-58
2023/06/20 04:51:17;;;;;;;7.40;6.72;;;20.60;99.90;;;;;;5070288;28;20039;-58
2023/06/20 04:53:43;;;;;;;8.30;7.45;;;20.40;99.90;;;;;;5070961;28;20032;-58
2023/06/20 04:56:09;;;;;;;9.27;7.53;;;20.40;99.90;;;;;;5071053;28;20025;-58
2023/06/20 04:58:34;;;;;;;8.18;7.38;;;20.40;99.90;;;;;;5071618;28;20056;-58
2023/06/20 05:01:01;;;;;;;9.10;7.40;;;20.30;99.90;;;;;;5071176;28;20020;-57
2023/06/20 05:03:27;;;;;;;9.70;7.78;;;20.30;99.90;;;;;;5070850;28;20095;-58
2023/06/20 05:05:53;;;;;;;7.78;7.00;;;20.30;99.90;;;;;;5070918;28;20120;-59
2023/06/20 05:08:19;;;;;;;7.72;6.93;;;20.30;99.90;;;;;;5071007;28;20029;-58
2023/06/20 05:10:45;;;;;;;7.30;6.65;;;20.30;99.90;;;;;;5070846;28;20030;-58
2023/06/20 05:13:11;;;;;;;9.45;6.70;;;20.30;99.90;;;;;;5070935;28;20032;-58
2023/06/20 05:15:37;;;;;;;8.63;6.80;;;20.30;99.90;;;;;;5071140;28;20025;-58
2023/06/20 05:18:02;;;;;;;8.00;7.18;;;20.40;99.90;;;;;;5069350;28;20025;-58
2023/06/20 05:20:28;;;;;;;7.72;6.53;;;20.50;99.90;;;;;;5071024;28;20074;-58
2023/06/20 05:22:54;;;;;;;7.68;6.95;;;20.50;99.90;;;;;;5072433;28;20028;-58
2023/06/20 05:25:19;;;;;;;9.68;7.20;;;20.60;99.90;;;;;;5074736;28;20041;-58
2023/06/20 05:27:47;;;;;;;8.60;7.68;;;20.60;99.90;;;;;;5074772;28;20073;-57
2023/06/20 05:30:13;;;;;;;9.75;7.20;;;20.60;99.90;;;;;;5074600;28;20025;-57
2023/06/20 05:32:38;;;;;;;8.85;7.30;;;20.60;99.90;;;;;;5074369;28;20036;-58
2023/06/20 05:35:07;;;;;;;8.05;7.25;;;20.90;99.90;;;;;;5074446;28;20094;-57
2023/06/20 05:37:36;;;;;;;7.82;7.13;;;21.20;99.90;;;;;;5074057;28;20032;-57
2023/06/20 05:40:04;;;;;;;8.45;7.50;;;21.10;99.90;;;;;;5073367;28;20027;-57
2023/06/20 05:42:30;;;;;;;8.15;7.13;;;21.10;99.90;;;;;;5074282;28;20074;-57
2023/06/20 05:44:56;;;;;;;7.85;7.00;;;21.10;99.90;;;;;;5073814;28;20455;-57
2023/06/20 05:47:22;;;;;;;7.88;7.18;;;21.10;99.90;;;;;;5074246;28;20028;-58
2023/06/20 05:49:48;;;;;;;7.80;7.07;;;21.10;99.90;;;;;;5074116;28;20395;-58
2023/06/20 05:52:14;;;;;;;7.80;7.00;;;21.30;99.90;;;;;;5074201;28;20028;-57
2023/06/20 05:54:42;;;;;;;7.70;6.70;;;21.20;99.90;;;;;;5074508;28;20032;-58
2023/06/20 05:57:08;;;;;;;7.93;6.85;;;21.20;99.90;;;;;;5073960;28;20078;-57
2023/06/20 05:59:34;;;;;;;7.43;6.65;;;21.20;99.90;;;;;;5073798;28;20405;-58
2023/06/20 06:02:00;;;;;;;10.23;6.93;;;21.30;99.90;;;;;;5074090;28;20103;-58
2023/06/20 06:04:25;;;;;;;25.30;10.60;;;21.30;99.90;;;;;;5073894;28;20127;-58
2023/06/20 06:06:51;;;;;;;20.67;10.70;;;21.30;99.90;;;;;;5074065;28;20574;-58
2023/06/20 06:09:17;;;;;;;14.80;10.55;;;20.90;99.90;;;;;;5073923;28;20037;-58
2023/06/20 06:11:43;;;;;;;14.65;9.88;;;20.80;99.90;;;;;;5074285;28;20095;-58
2023/06/20 06:14:09;;;;;;;14.07;8.60;;;20.60;99.90;;;;;;5073596;28;20028;-58
2023/06/20 06:16:35;;;;;;;9.95;6.75;;;20.60;99.90;;;;;;5073801;28;20774;-58
2023/06/20 06:19:02;;;;;;;8.10;6.75;;;20.60;99.90;;;;;;5073811;28;20112;-58
2023/06/20 06:21:27;;;;;;;11.07;6.50;;;20.50;99.90;;;;;;5073674;28;20543;-58
2023/06/20 06:23:54;;;;;;;9.52;7.78;;;20.60;99.90;;;;;;5073402;28;20029;-58
2023/06/20 06:26:19;;;;;;;9.52;7.80;;;20.60;99.90;;;;;;5073739;28;20035;-58
2023/06/20 06:28:45;;;;;;;9.63;8.20;;;20.40;99.90;;;;;;5073436;28;20020;-58
2023/06/20 06:31:14;;;;;;;9.82;7.90;;;20.30;99.90;;;;;;5074117;28;20127;-58
2023/06/20 06:33:41;;;;;;;10.85;8.23;;;20.30;99.90;;;;;;5073017;28;20033;-57
2023/06/20 06:36:08;;;;;;;9.23;6.97;;;20.20;99.90;;;;;;5053311;28;20401;-59
2023/06/20 06:38:34;;;;;;;9.50;7.15;;;20.20;99.90;;;;;;5053384;28;20028;-58
2023/06/20 06:41:00;;;;;;;9.25;7.72;;;20.20;99.90;;;;;;5053377;28;20025;-58
2023/06/20 06:43:26;;;;;;;8.38;7.57;;;20.20;99.90;;;;;;5063311;28;20025;-58
2023/06/20 06:45:52;;;;;;;10.63;8.20;;;20.20;99.90;;;;;;5073300;28;20519;-58
2023/06/20 06:48:18;;;;;;;10.57;7.80;;;20.10;99.90;;;;;;5073412;28;20020;-58
2023/06/20 06:50:44;;;;;;;10.32;8.20;;;20.10;99.90;;;;;;5073350;28;20028;-58
2023/06/20 06:53:11;;;;;;;8.52;7.53;;;20.10;99.90;;;;;;5072929;28;20496;-57
2023/06/20 06:55:36;;;;;;;8.40;7.60;;;20.20;99.90;;;;;;5073166;28;20036;-58
2023/06/20 06:58:02;;;;;;;8.20;7.40;;;20.30;99.90;;;;;;5073304;28;20388;-57
2023/06/20 07:00:29;;;;;;;8.20;7.35;;;20.40;99.90;;;;;;5073050;28;20025;-58
2023/06/20 07:02:55;;;;;;;8.15;7.35;;;20.50;99.90;;;;;;5072449;28;20074;-58
2023/06/20 07:05:20;;;;;;;7.82;7.07;;;20.70;99.90;;;;;;5073373;28;20485;-58
2023/06/20 07:07:46;;;;;;;8.23;6.90;;;20.50;99.90;;;;;;5071075;28;20066;-58
2023/06/20 07:23:13;;;;;;;8.57;7.05;;;20.40;99.90;;;;;;5108607;27;20674;-57
2023/06/20 07:25:39;;;;;;;8.05;7.10;;;20.30;99.90;;;;;;5108461;28;20028;-57
2023/06/20 07:28:04;;;;;;;9.30;7.53;;;20.40;99.90;;;;;;5108938;28;20059;-57
2023/06/20 07:30:31;;;;;;;8.27;6.88;;;20.40;99.90;;;;;;5108151;28;20015;-57
2023/06/20 07:32:56;;;;;;;11.07;7.53;;;20.60;99.90;;;;;;5108366;28;20043;-57
2023/06/20 07:35:22;;;;;;;19.23;7.82;;;20.50;99.90;;;;;;5108255;28;20016;-57
2023/06/20 07:37:48;;;;;;;13.80;7.97;;;20.30;99.90;;;;;;5108462;28;20024;-57
2023/06/20 07:40:13;;;;;;;10.05;6.93;;;20.30;99.90;;;;;;5108777;28;20085;-57
2023/06/20 07:42:39;;;;;;;8.23;7.10;;;20.30;99.90;;;;;;5108185;28;20024;-57
2023/06/20 07:45:05;;;;;;;8.20;7.50;;;20.20;99.90;;;;;;5108121;28;20024;-57
2023/06/20 07:47:31;;;;;;;8.65;7.75;;;20.20;99.90;;;;;;5108225;28;20070;-57
2023/06/20 07:49:57;;;;;;;8.27;7.53;;;20.10;99.90;;;;;;5107990;28;20023;-57
2023/06/20 07:52:23;;;;;;;8.90;8.02;;;20.10;99.90;;;;;;5108370;28;20036;-57
2023/06/20 07:54:48;;;;;;;10.40;8.20;;;20.20;99.90;;;;;;5108023;28;20024;-57
2023/06/20 07:57:14;;;;;;;9.02;7.47;;;20.20;99.90;;;;;;5108069;28;20047;-57
2023/06/20 07:59:40;;;;;;;13.65;7.55;;;20.30;99.90;;;;;;5107834;28;20390;-57
2023/06/20 08:02:05;;;;;;;9.70;7.38;;;20.20;99.90;;;;;;5108051;28;20038;-57
2023/06/20 08:04:31;;;;;;;9.13;7.78;;;20.30;99.90;;;;;;5107929;28;20073;-57
2023/06/20 08:06:57;;;;;;;8.75;7.28;;;20.20;99.90;;;;;;5108236;28;20024;-57
2023/06/20 08:09:22;;;;;;;9.05;7.65;;;20.30;99.90;;;;;;5107979;28;20023;-57
2023/06/20 08:11:48;;;;;;;9.40;8.00;;;20.30;99.90;;;;;;5107538;28;20075;-57
2023/06/20 08:14:14;;;;;;;8.68;7.63;;;20.30;99.90;;;;;;5107365;28;20047;-57
2023/06/20 08:16:39;;;;;;;8.90;8.00;;;20.30;99.90;;;;;;5107458;28;20031;-57
2023/06/20 08:19:05;;;;;;;9.10;8.02;;;20.40;99.90;;;;;;5105982;28;20441;-57
2023/06/20 08:21:31;;;;;;;8.05;7.30;;;20.40;99.90;;;;;;5107353;28;20051;-58
2023/06/20 08:23:57;;;;;;;8.38;7.45;;;20.70;99.90;;;;;;5093604;28;20036;-57
2023/06/20 08:26:22;;;;;;;8.68;7.30;;;20.90;99.90;;;;;;5093649;28;20413;-58
2023/06/20 08:28:48;;;;;;;8.63;7.50;;;20.80;99.90;;;;;;5092350;28;20518;-57
2023/06/20 08:31:15;;;;;;;9.10;8.05;;;20.70;99.90;;;;;;5093586;28;20461;-57
2023/06/20 08:33:41;;;;;;;8.63;7.65;;;20.60;99.90;;;;;;5093510;28;20024;-57
2023/06/20 08:36:09;;;;;;;8.60;7.70;;;20.70;99.90;;;;;;5093704;28;20031;-57
2023/06/20 08:38:35;;;;;;;9.13;7.93;;;20.70;99.90;;;;;;5093199;28;20039;-57
2023/06/20 08:41:02;;;;;;;9.38;8.10;;;20.60;99.90;;;;;;5093725;28;20032;-57
2023/06/20 08:43:29;;;;;;;8.07;7.28;;;20.70;99.90;;;;;;5093039;28;20089;-57
2023/06/20 08:45:55;;;;;;;9.20;8.20;;;20.80;99.90;;;;;;5093364;28;20032;-58
2023/06/20 08:48:25;;;;;;;14.90;11.23;;;20.80;99.90;;;;;;5093806;28;20028;-58
2023/06/20 08:50:51;;;;;;;14.98;11.15;;;20.40;99.90;;;;;;5093157;28;20036;-57
2023/06/20 08:53:18;;;;;;;10.65;9.02;;;20.10;99.90;;;;;;5093293;28;20055;-58
2023/06/20 08:55:45;;;;;;;12.60;8.75;;;20.00;99.90;;;;;;5093117;28;20067;-56
2023/06/20 08:58:11;;;;;;;8.88;7.75;;;19.90;99.90;;;;;;5093097;28;20039;-57
2023/06/20 09:00:40;;;;;;;13.07;8.27;;;19.90;99.90;;;;;;5092465;28;20610;-57
2023/06/20 09:03:06;;;;;;;10.63;8.30;;;20.00;99.90;;;;;;5091895;28;20032;-57
2023/06/20 09:05:32;;;;;;;10.35;7.10;;;19.90;99.90;;;;;;5092007;28;20016;-57
2023/06/20 09:07:58;;;;;;;10.27;6.97;;;20.00;99.90;;;;;;5093448;28;20032;-57
2023/06/20 09:10:25;;;;;;;10.68;7.05;;;20.00;99.90;;;;;;5092985;28;20397;-58
2023/06/20 09:12:51;;;;;;;10.43;7.25;;;19.90;99.90;;;;;;5092724;28;20126;-58
2023/06/20 09:15:22;;;;;;;47.00;43.13;;;19.90;99.90;;;;;;5092983;28;20099;-58
2023/06/20 09:18:00;;;;;;;74.35;68.45;;;19.80;99.90;;;;;;5091950;28;20031;-58
2023/06/20 09:20:27;;;;;;;149.32;137.20;;;19.70;99.90;;;;;;5092875;28;20024;-57
2023/06/20 09:22:53;;;;;;;86.18;79.20;;;19.70;99.90;;;;;;5092828;28;20044;-57
2023/06/20 09:25:24;;;;;;;67.13;61.08;;;19.70;99.90;;;;;;5092688;28;20032;-57
2023/06/20 09:27:51;;;;;;;53.97;49.28;;;19.60;99.90;;;;;;5092493;28;20058;-58
2023/06/20 09:30:17;;;;;;;32.78;29.60;;;19.70;99.90;;;;;;5092790;28;20047;-57
2023/06/20 09:32:42;;;;;;;35.88;32.78;;;19.80;99.90;;;;;;5092591;28;20119;-59
2023/06/20 09:35:14;;;;;;;20.38;18.60;;;20.00;99.90;;;;;;5091952;28;20024;-58
2023/06/20 09:37:45;;;;;;;18.00;15.90;;;20.00;99.90;;;;;;5092676;28;20032;-58
2023/06/20 09:40:15;;;;;;;10.25;8.90;;;19.90;99.90;;;;;;5092540;28;20322;-58
2023/06/20 09:42:43;;;;;;;10.60;9.43;;;19.90;99.90;;;;;;5092013;28;20042;-58
2023/06/20 09:45:11;;;;;;;11.27;7.13;;;19.90;99.90;;;;;;5092442;28;20035;-58
2023/06/20 09:47:38;;;;;;;9.43;8.10;;;19.80;99.90;;;;;;5092346;28;20036;-58
2023/06/20 09:50:08;;;;;;;8.82;8.00;;;19.90;99.90;;;;;;5092712;28;20067;-58
2023/06/20 09:52:42;;;;;;;8.73;7.28;;;19.90;99.90;;;;;;5092178;28;20062;-58
2023/06/20 09:55:10;;;;;;;4.38;3.97;;;19.90;99.90;;;;;;5092213;28;20035;-58
2023/06/20 09:57:45;;;;;;;5.32;4.20;;;19.70;99.90;;;;;;5092646;28;20036;-58
2023/06/20 10:00:15;;;;;;;8.98;4.43;;;19.70;99.90;;;;;;5092133;28;20023;-58
2023/06/20 10:02:48;;;;;;;4.15;3.60;;;19.60;99.90;;;;;;5092360;28;20028;-57
2023/06/20 10:05:16;;;;;;;7.53;3.75;;;19.50;99.90;;;;;;5091886;28;20027;-58
2023/06/20 10:07:43;;;;;;;3.92;3.45;;;19.40;99.90;;;;;;5091943;28;20089;-58
2023/06/20 10:10:10;;;;;;;5.32;3.10;;;19.30;99.90;;;;;;5091758;28;20371;-58
2023/06/20 10:12:38;;;;;;;3.90;3.00;;;19.50;99.90;;;;;;5092070;28;20035;-58
2023/06/20 10:15:07;;;;;;;3.20;2.90;;;19.30;99.90;;;;;;5092401;28;20055;-58
2023/06/20 10:17:38;;;;;;;3.67;3.00;;;19.10;99.90;;;;;;5091576;28;20390;-58
2023/06/20 10:20:08;;;;;;;3.60;2.95;;;19.10;99.90;;;;;;5091666;28;20043;-58
2023/06/20 10:22:38;;;;;;;6.05;3.20;;;19.20;99.90;;;;;;5091441;28;20052;-58
2023/06/20 10:25:12;;;;;;;3.40;3.10;;;19.40;99.90;;;;;;5091787;28;20032;-58
2023/06/20 10:28:01;;;;;;;4.18;3.30;;;19.90;99.90;;;;;;5092008;28;20036;-58
2023/06/20 10:33:32;;;;;;;4.28;3.08;;;20.40;99.90;;;;;;5091481;28;20024;-58
2023/06/20 10:36:09;;;;;;;3.58;3.20;;;20.70;99.90;;;;;;5091494;28;20444;-58
2023/06/20 10:38:38;;;;;;;3.55;3.22;;;20.90;99.90;;;;;;5091477;28;20026;-59
2023/06/20 10:41:12;;;;;;;5.35;3.42;;;21.10;99.90;;;;;;5091498;28;20421;-58
2023/06/20 10:44:00;;;;;;;4.88;3.60;;;21.30;99.90;;;;;;5091755;28;20020;-58
2023/06/20 10:46:29;;;;;;;6.75;3.72;;;21.40;99.90;;;;;;5091130;28;20038;-57
2023/06/20 10:48:55;;;;;;;4.85;3.70;;;21.80;99.90;;;;;;5090121;28;20024;-60
2023/06/20 10:51:21;;;;;;;3.95;3.53;;;22.20;99.90;;;;;;5091183;28;20520;-58
2023/06/20 10:53:47;;;;;;;4.45;4.05;;;22.60;99.90;;;;;;5090835;28;20024;-59
2023/06/20 10:56:26;;;;;;;6.30;5.30;;;22.70;99.90;;;;;;5091273;28;20032;-58
2023/06/20 10:58:52;;;;;;;28.95;22.80;;;23.10;99.90;;;;;;5091680;28;20024;-58
2023/06/20 11:01:18;;;;;;;9.98;8.25;;;23.10;99.90;;;;;;5090990;28;20021;-59
2023/06/20 11:03:45;;;;;;;4.88;4.47;;;23.20;99.90;;;;;;5091239;28;20496;-58
2023/06/20 11:06:15;;;;;;;4.68;4.10;;;23.30;99.90;;;;;;5091477;28;20122;-58
2023/06/20 11:08:45;;;;;;;4.03;3.70;;;23.60;99.90;;;;;;5089482;28;20060;-58
2023/06/20 11:11:10;;;;;;;4.75;3.80;;;23.60;99.90;;;;;;5090949;28;20568;-58
2023/06/20 11:13:42;;;;;;;5.07;3.95;;;23.80;99.90;;;;;;5091019;28;20132;-58
2023/06/20 11:16:17;;;;;;;4.40;3.83;;;24.00;99.90;;;;;;5091125;28;20024;-59
2023/06/20 11:18:43;;;;;;;3.55;3.25;;;24.00;99.90;;;;;;5090779;28;20128;-58
2023/06/20 11:21:09;;;;;;;4.10;3.10;;;23.90;99.90;;;;;;5090780;28;20111;-58
2023/06/20 11:23:35;;;;;;;5.40;3.25;;;23.80;99.90;;;;;;5090692;28;20036;-58
2023/06/20 11:26:01;;;;;;;4.47;3.13;;;23.70;99.90;;;;;;5090796;28;20026;-58
2023/06/20 11:28:26;;;;;;;4.45;3.33;;;23.80;99.90;;;;;;5091150;28;20052;-58
2023/06/20 11:30:52;;;;;;;3.65;3.08;;;23.80;99.90;;;;;;5091410;28;20103;-58
2023/06/20 11:33:18;;;;;;;6.45;3.38;;;23.80;99.90;;;;;;5090854;28;20024;-58
2023/06/20 11:35:50;;;;;;;3.75;3.20;;;23.80;99.90;;;;;;5090894;28;20035;-58
2023/06/20 11:38:27;;;;;;;4.00;3.10;;;23.90;99.90;;;;;;5090603;28;20055;-58
2023/06/20 11:41:03;;;;;;;3.72;3.05;;;24.10;99.90;;;;;;5091224;28;20020;-58
2023/06/20 11:43:35;;;;;;;3.75;2.88;;;24.30;99.90;;;;;;5090325;28;20028;-59
2023/06/20 11:46:01;;;;;;;3.50;2.70;;;24.20;99.90;;;;;;5091157;28;20032;-59
2023/06/20 11:48:28;;;;;;;3.05;2.70;;;24.10;99.90;;;;;;5090789;28;20362;-59
2023/06/20 11:50:55;;;;;;;3.95;3.03;;;24.20;99.90;;;;;;5090577;28;20032;-59
2023/06/20 11:53:25;;;;;;;3.75;3.20;;;24.20;99.90;;;;;;5090467;28;20056;-59
2023/06/20 11:55:55;;;;;;;3.20;2.72;;;24.40;99.90;;;;;;5090788;28;20016;-59
2023/06/20 11:58:22;;;;;;;4.30;3.20;;;24.50;99.90;;;;;;5092916;28;20533;-59
2023/06/20 12:01:04;;;;;;;3.40;3.10;;;24.70;99.90;;;;;;5094516;28;20055;-59
2023/06/20 12:03:31;;;;;;;3.95;2.95;;;25.10;99.90;;;;;;5094344;28;20044;-58
2023/06/20 12:05:57;;;;;;;3.45;2.97;;;25.30;99.90;;;;;;5094174;28;20155;-59
2023/06/20 12:08:33;;;;;;;3.53;3.22;;;25.40;99.90;;;;;;5094541;28;20103;-59
2023/06/20 12:11:03;;;;;;;4.53;2.97;;;25.50;99.90;;;;;;5094572;28;20070;-59
2023/06/20 12:13:30;;;;;;;3.70;3.10;;;25.50;99.90;;;;;;5094205;28;20024;-59
2023/06/20 12:15:57;;;;;;;3.85;2.80;;;25.30;99.90;;;;;;5094277;28;20077;-59
2023/06/20 12:18:23;;;;;;;4.32;3.03;;;25.40;99.90;;;;;;5093921;28;20032;-59
2023/06/20 12:20:49;;;;;;;6.53;3.55;;;25.40;99.90;;;;;;5093694;28;20027;-59
2023/06/20 12:23:15;;;;;;;3.20;2.90;;;25.50;99.90;;;;;;5094022;28;20509;-58
2023/06/20 12:25:41;;;;;;;3.38;3.08;;;25.50;99.90;;;;;;5094544;28;20443;-59
2023/06/20 12:28:06;;;;;;;3.67;3.38;;;25.60;99.90;;;;;;5093967;28;20024;-58
2023/06/20 12:30:33;;;;;;;4.40;3.00;;;25.70;99.90;;;;;;5093938;28;20077;-58
2023/06/20 12:32:59;;;;;;;3.38;3.08;;;25.60;99.90;;;;;;5094263;28;20039;-59
2023/06/20 12:35:26;;;;;;;3.92;3.05;;;25.70;99.90;;;;;;5093518;28;20020;-58
2023/06/20 12:37:52;;;;;;;3.92;3.40;;;25.70;99.90;;;;;;5093825;28;20036;-59
2023/06/20 12:40:17;;;;;;;3.55;3.25;;;25.70;99.90;;;;;;5092475;28;20066;-58
2023/06/20 12:42:43;;;;;;;3.60;3.30;;;25.70;99.90;;;;;;5094173;28;20528;-58
2023/06/20 12:45:10;;;;;;;4.22;3.70;;;25.70;99.90;;;;;;5093560;28;20028;-59
2023/06/20 12:47:37;;;;;;;5.07;3.63;;;25.40;99.90;;;;;;5093289;28;20055;-58
2023/06/20 12:50:04;;;;;;;5.35;3.50;;;25.40;99.90;;;;;;5093672;28;20016;-58
2023/06/20 12:52:31;;;;;;;4.60;3.40;;;25.30;99.90;;;;;;5093377;28;20058;-58
2023/06/20 12:54:58;;;;;;;3.50;3.20;;;25.20;99.90;;;;;;5093621;28;20032;-58
2023/06/20 12:57:25;;;;;;;4.32;3.55;;;25.20;99.90;;;;;;5093528;28;20117;-59
2023/06/20 12:59:52;;;;;;;4.38;3.45;;;25.00;99.90;;;;;;5093491;28;20523;-59
2023/06/20 13:02:19;;;;;;;5.15;3.47;;;24.90;99.90;;;;;;5093262;28;20048;-59
2023/06/20 13:04:45;;;;;;;5.68;3.60;;;24.80;99.90;;;;;;5093236;28;20413;-58